Time;durP1;ratioP1;P1;durP2;ratioP2;P2;SDS_P1;SDS_P2;PMS_P1;PMS_P2;Temp;Humidity;BMP_temperature;BMP_pressure;BME280_temperature;BME280_humidity;BME280_pressure;Samples;Min_cycle;Max_cycle;Signal;HPM_P1;HPM_P2
2023/10/30 00:01:50;;;;;;;41.85;11.15;;;;;;;6.07;100.00;97993.41;5018100;28;20422;-74
2023/10/30 00:04:15;;;;;;;61.58;14.32;;;;;;;6.11;100.00;97991.13;4999635;28;20049;-74
2023/10/30 00:06:41;;;;;;;51.90;12.00;;;;;;;6.13;100.00;97991.72;5002774;28;20087;-74
2023/10/30 00:09:06;;;;;;;56.20;13.07;;;;;;;6.15;100.00;97992.34;5017600;28;20029;-74
2023/10/30 00:11:32;;;;;;;70.63;14.32;;;;;;;6.15;100.00;97989.66;5017031;28;20473;-75
2023/10/30 00:13:58;;;;;;;68.05;14.10;;;;;;;6.18;100.00;97991.91;5001834;28;20029;-74
2023/10/30 00:16:23;;;;;;;60.95;14.80;;;;;;;6.17;100.00;97992.94;5002500;28;20095;-74
2023/10/30 00:18:49;;;;;;;58.03;13.10;;;;;;;6.19;100.00;98001.53;5000229;28;20033;-74
2023/10/30 00:21:15;;;;;;;56.22;13.13;;;;;;;6.16;100.00;97999.28;5016442;28;20080;-74
2023/10/30 00:23:40;;;;;;;51.08;12.85;;;;;;;6.11;100.00;97999.97;5001359;28;20444;-74
2023/10/30 00:26:06;;;;;;;44.88;11.10;;;;;;;6.08;100.00;98002.22;5036232;28;20030;-74
2023/10/30 00:28:34;;;;;;;55.85;16.98;;;;;;;6.09;100.00;98003.88;5049564;28;20047;-75
2023/10/30 00:31:01;;;;;;;40.55;11.40;;;;;;;6.03;100.00;98002.84;5003045;28;20505;-74
2023/10/30 00:33:27;;;;;;;44.35;11.70;;;;;;;6.06;100.00;98012.28;5033934;28;20049;-75
2023/10/30 00:35:52;;;;;;;40.38;11.18;;;;;;;6.01;100.00;98015.59;5047045;28;20129;-74
2023/10/30 00:38:18;;;;;;;44.33;14.32;;;;;;;6.00;100.00;98011.28;5001218;28;20029;-74
2023/10/30 00:40:44;;;;;;;44.38;12.07;;;;;;;6.00;100.00;98013.97;5000118;28;20535;-76
2023/10/30 00:43:10;;;;;;;34.72;10.93;;;;;;;6.02;100.00;98019.91;5017615;28;20037;-74
2023/10/30 00:45:35;;;;;;;23.95;7.93;;;;;;;5.99;100.00;98023.00;5002169;28;20033;-74
2023/10/30 00:48:01;;;;;;;42.85;12.15;;;;;;;6.03;100.00;98032.19;5017599;28;20029;-76
2023/10/30 00:50:26;;;;;;;35.42;11.80;;;;;;;6.05;100.00;98030.13;5031085;28;20486;-76
2023/10/30 00:52:52;;;;;;;36.03;12.20;;;;;;;6.10;100.00;98037.50;5001104;28;20065;-77
2023/10/30 00:55:18;;;;;;;44.33;11.63;;;;;;;6.15;100.00;98035.03;5017764;28;20033;-74
2023/10/30 00:57:44;;;;;;;42.33;14.30;;;;;;;6.19;100.00;98030.88;4999938;28;20037;-74
2023/10/30 01:00:11;;;;;;;42.63;14.88;;;;;;;6.25;100.00;98037.22;5018241;28;20033;-74
2023/10/30 01:02:36;;;;;;;63.70;19.88;;;;;;;6.26;100.00;98033.53;5030936;28;20033;-75
2023/10/30 01:05:02;;;;;;;41.00;12.95;;;;;;;6.25;100.00;98023.88;4999353;28;20369;-75
2023/10/30 01:07:28;;;;;;;59.70;18.90;;;;;;;6.31;100.00;98034.50;4985600;28;20506;-74
2023/10/30 01:09:53;;;;;;;47.65;13.20;;;;;;;6.33;100.00;98034.31;5015308;28;20033;-75
2023/10/30 01:12:19;;;;;;;42.45;13.50;;;;;;;6.32;100.00;98036.13;5032335;28;20029;-75
2023/10/30 01:14:45;;;;;;;45.17;13.23;;;;;;;6.33;100.00;98035.13;5033865;28;20104;-75
2023/10/30 01:17:10;;;;;;;42.60;13.25;;;;;;;6.36;100.00;98039.22;5000162;28;20468;-75
2023/10/30 01:19:36;;;;;;;65.28;19.05;;;;;;;6.38;100.00;98042.47;4998285;28;20040;-75
2023/10/30 01:22:01;;;;;;;49.30;15.48;;;;;;;6.33;100.00;98034.31;5001452;28;20040;-75
2023/10/30 01:24:27;;;;;;;52.60;16.17;;;;;;;6.36;100.00;98045.34;5031760;28;20483;-75
2023/10/30 01:26:53;;;;;;;61.03;18.90;;;;;;;6.38;100.00;98035.28;5031560;28;20032;-75
2023/10/30 01:29:21;;;;;;;0.40;0.40;;;;;;;6.36;100.00;98037.34;5017597;28;20021;-74
2023/10/30 01:31:47;;;;;;;0.40;0.40;;;;;;;6.38;100.00;98045.16;5017507;28;20468;-74
2023/10/30 01:34:12;;;;;;;0.40;0.40;;;;;;;6.36;100.00;98037.34;4998313;28;20049;-74
2023/10/30 01:36:38;;;;;;;0.30;0.30;;;;;;;6.39;100.00;98041.44;5000989;28;20037;-75
2023/10/30 01:39:04;;;;;;;0.40;0.40;;;;;;;6.39;100.00;98041.44;5000013;28;20068;-75
2023/10/30 01:41:29;;;;;;;0.40;0.40;;;;;;;6.40;100.00;98045.72;5000002;28;20036;-74
2023/10/30 01:43:55;;;;;;;0.40;0.40;;;;;;;6.43;100.00;98052.50;5000975;28;20033;-74
2023/10/30 01:46:20;;;;;;;14.80;12.20;;;;;;;6.45;100.00;98048.56;5033210;28;20029;-74
2023/10/30 01:48:46;;;;;;;0.40;0.40;;;;;;;6.47;100.00;98051.84;4999070;28;20029;-75
2023/10/30 01:51:13;;;;;;;0.30;0.30;;;;;;;6.49;100.00;98057.81;5011449;28;20124;-75
2023/10/30 01:53:39;;;;;;;0.40;0.40;;;;;;;6.41;100.00;98035.91;4982056;28;20091;-74
2023/10/30 01:56:05;;;;;;;0.40;0.40;;;;;;;6.51;100.00;98055.75;4982461;28;20030;-75
2023/10/30 01:58:31;;;;;;;0.30;0.30;;;;;;;6.50;100.00;98054.09;5016888;28;20039;-74
2023/10/30 02:00:58;;;;;;;0.38;0.38;;;;;;;6.54;100.00;98055.31;5016864;28;20026;-75
2023/10/30 02:03:23;;;;;;;0.40;0.40;;;;;;;6.55;100.00;98056.94;5032152;28;20033;-75
2023/10/30 02:05:50;;;;;;;0.40;0.40;;;;;;;6.57;100.00;98062.88;5028789;28;20040;-75
2023/10/30 02:08:16;;;;;;;0.40;0.40;;;;;;;6.59;100.00;98060.81;5030390;28;20439;-75
2023/10/30 02:10:42;;;;;;;0.40;0.40;;;;;;;6.62;100.00;98064.91;5016721;28;20030;-75
2023/10/30 02:13:08;;;;;;;0.32;0.32;;;;;;;6.63;100.00;98063.84;5015698;28;20033;-75
2023/10/30 02:15:34;;;;;;;0.40;0.40;;;;;;;6.65;100.00;98067.13;5016701;28;20065;-75
2023/10/30 02:18:00;;;;;;;0.30;0.30;;;;;;;6.65;100.00;98067.13;4982799;28;20148;-75
2023/10/30 02:20:27;;;;;;;0.40;0.40;;;;;;;6.66;100.00;98068.75;4996254;28;20099;-74
2023/10/30 02:22:53;;;;;;;0.40;0.40;;;;;;;6.65;100.00;98066.31;4997178;28;20468;-75
2023/10/30 02:25:25;;;;;;;0.40;0.40;;;;;;;6.67;100.00;98074.91;4997023;28;20037;-74
2023/10/30 02:27:54;;;;;;;0.40;0.40;;;;;;;6.69;100.00;98073.66;5003794;28;20388;-75
2023/10/30 02:30:20;;;;;;;0.40;0.40;;;;;;;6.70;100.00;98069.16;5013272;28;20092;-75
2023/10/30 02:32:47;;;;;;;0.40;0.40;;;;;;;6.72;100.00;98061.72;4981311;28;20382;-75
2023/10/30 02:35:15;;;;;;;0.40;0.40;;;;;;;6.72;100.00;98064.41;4998306;28;20045;-75
2023/10/30 02:37:41;;;;;;;0.40;0.40;;;;;;;6.70;100.00;98058.47;5016404;28;20041;-74
2023/10/30 02:40:08;;;;;;;0.38;0.38;;;;;;;6.69;100.00;98048.81;5030543;28;20029;-75
2023/10/30 02:42:33;;;;;;;0.40;0.40;;;;;;;6.70;100.00;98053.16;4983062;28;20037;-75
2023/10/30 02:44:59;;;;;;;0.40;0.40;;;;;;;6.68;100.00;98056.03;5000039;28;20483;-75
2023/10/30 02:47:25;;;;;;;0.40;0.40;;;;;;;6.69;100.00;98056.84;4999996;28;20034;-74
2023/10/30 02:49:51;;;;;;;0.40;0.40;;;;;;;6.68;100.00;98049.88;4997554;28;20045;-74
2023/10/30 02:52:18;;;;;;;0.40;0.40;;;;;;;6.68;100.00;98049.88;5016171;28;20033;-74
2023/10/30 02:54:44;;;;;;;0.40;0.40;;;;;;;6.69;100.00;98046.16;5030504;28;20029;-74
2023/10/30 02:57:10;;;;;;;0.40;0.40;;;;;;;6.65;100.00;98037.75;4998594;28;20077;-75
2023/10/30 02:59:36;;;;;;;0.30;0.30;;;;;;;6.67;100.00;98042.88;4999901;28;20435;-74
2023/10/30 03:02:02;;;;;;;0.30;0.30;;;;;;;6.67;100.00;98050.88;4992732;28;20039;-75
2023/10/30 03:04:28;;;;;;;0.40;0.40;;;;;;;6.65;100.00;98048.44;5013395;28;20036;-76
2023/10/30 03:06:54;;;;;;;0.38;0.38;;;;;;;6.61;100.00;98049.91;4999838;28;20060;-75
2023/10/30 03:09:20;;;;;;;0.40;0.40;;;;;;;6.56;100.00;98053.25;5010855;28;20460;-74
2023/10/30 03:11:46;;;;;;;0.30;0.30;;;;;;;6.56;100.00;98058.59;4989076;28;20034;-74
2023/10/30 03:14:12;;;;;;;0.40;0.40;;;;;;;6.51;100.00;98052.22;5016236;28;20026;-75
2023/10/30 03:16:38;;;;;;;0.35;0.35;;;;;;;6.54;100.00;98057.16;5015865;28;20030;-74
2023/10/30 03:19:03;;;;;;;0.40;0.40;;;;;;;6.58;100.00;98055.69;5012555;28;20034;-74
2023/10/30 03:21:29;;;;;;;0.30;0.30;;;;;;;6.63;100.00;98055.84;5032009;28;20096;-75
2023/10/30 03:23:55;;;;;;;0.30;0.30;;;;;;;6.67;100.00;98056.22;5014366;28;20120;-75
2023/10/30 03:26:20;;;;;;;0.30;0.30;;;;;;;6.68;100.00;98050.69;5029888;28;20034;-75
2023/10/30 03:28:46;;;;;;;0.40;0.40;;;;;;;6.72;100.00;98056.41;5032769;28;20108;-75
2023/10/30 03:31:11;;;;;;;0.40;0.40;;;;;;;6.71;100.00;98057.44;5015995;28;20379;-76
2023/10/30 03:33:37;;;;;;;0.40;0.40;;;;;;;6.73;100.00;98053.53;5031963;28;20415;-76
2023/10/30 03:36:03;;;;;;;0.30;0.30;;;;;;;6.74;100.00;98060.47;5034978;28;20116;-75
2023/10/30 03:38:28;;;;;;;0.40;0.40;;;;;;;6.77;100.00;98059.22;5034553;28;20040;-75
2023/10/30 03:40:54;;;;;;;0.40;0.40;;;;;;;6.76;100.00;98060.28;5019559;28;20108;-76
2023/10/30 03:43:22;;;;;;;0.40;0.40;;;;;;;6.73;100.00;98064.19;5034881;28;20080;-75
2023/10/30 03:45:47;;;;;;;0.40;0.40;;;;;;;6.74;100.00;98070.34;5019496;28;20041;-75
2023/10/30 03:48:13;;;;;;;0.30;0.30;;;;;;;6.73;100.00;98066.06;5019492;28;20091;-75
2023/10/30 03:50:39;;;;;;;0.40;0.40;;;;;;;6.70;100.00;98056.63;5017196;28;20406;-75
2023/10/30 03:53:04;;;;;;;0.40;0.40;;;;;;;6.72;100.00;98067.06;5034639;28;20030;-76
2023/10/30 03:55:30;;;;;;;0.30;0.30;;;;;;;6.71;100.00;98057.44;5019204;28;20041;-76
2023/10/30 03:57:56;;;;;;;0.40;0.40;;;;;;;6.69;100.00;98062.97;5017946;28;20095;-76
2023/10/30 04:00:21;;;;;;;0.40;0.40;;;;;;;6.66;100.00;98062.59;5034506;28;20035;-76
2023/10/30 04:02:47;;;;;;;0.30;0.30;;;;;;;6.66;100.00;98063.44;5002923;28;20082;-75
2023/10/30 04:05:12;;;;;;;0.40;0.40;;;;;;;6.65;100.00;98072.47;5032313;28;20041;-76
2023/10/30 04:07:38;;;;;;;0.40;0.40;;;;;;;6.64;100.00;98072.69;5017777;28;20034;-76
2023/10/30 04:10:04;;;;;;;0.30;0.30;;;;;;;6.64;100.00;98075.34;4998977;28;20037;-76
2023/10/30 04:12:30;;;;;;;0.30;0.30;;;;;;;6.65;100.00;98077.00;5066374;28;20490;-76
2023/10/30 04:14:56;;;;;;;0.40;0.40;;;;;;;6.64;100.00;98076.16;5035615;28;20029;-76
2023/10/30 04:17:21;;;;;;;0.40;0.40;;;;;;;6.63;100.00;98068.38;5019069;28;20040;-75
2023/10/30 04:19:47;;;;;;;0.40;0.40;;;;;;;6.62;100.00;98070.25;5001571;28;20026;-75
2023/10/30 04:22:12;;;;;;;0.30;0.30;;;;;;;6.65;100.00;98077.00;5018876;28;20040;-76
2023/10/30 04:24:38;;;;;;;0.35;0.35;;;;;;;6.67;100.00;98080.25;5017462;28;20044;-76
2023/10/30 04:27:04;;;;;;;0.40;0.40;;;;;;;6.69;100.00;98080.88;5034066;28;20026;-76
2023/10/30 04:29:29;;;;;;;0.30;0.30;;;;;;;6.72;100.00;98080.44;5034052;28;20422;-76
2023/10/30 04:31:55;;;;;;;0.40;0.40;;;;;;;6.75;100.00;98072.00;5034418;28;20053;-76
2023/10/30 04:34:21;;;;;;;0.40;0.40;;;;;;;6.77;100.00;98081.44;5016388;28;20029;-75
2023/10/30 04:36:47;;;;;;;0.40;0.40;;;;;;;6.78;100.00;98072.38;5002276;28;20095;-75
2023/10/30 04:39:13;;;;;;;0.32;0.32;;;;;;;6.79;100.00;98082.03;5001192;28;20029;-75
2023/10/30 04:41:39;;;;;;;0.40;0.40;;;;;;;6.79;100.00;98078.53;5033596;28;20083;-76
2023/10/30 04:44:05;;;;;;;0.40;0.40;;;;;;;6.80;100.00;98080.16;5034659;28;20038;-76
2023/10/30 04:46:31;;;;;;;0.32;0.32;;;;;;;6.79;100.00;98079.34;5017728;28;20073;-76
2023/10/30 04:48:56;;;;;;;0.30;0.30;;;;;;;6.80;100.00;98085.50;5025245;28;20034;-75
2023/10/30 04:51:22;;;;;;;0.40;0.40;;;;;;;6.78;100.00;98084.91;5034399;28;20034;-76
2023/10/30 04:53:47;;;;;;;0.30;0.30;;;;;;;6.74;100.00;98076.50;5032450;28;20391;-76
2023/10/30 04:56:13;;;;;;;0.40;0.40;;;;;;;6.78;100.00;98093.75;5018023;28;20041;-75
2023/10/30 04:58:39;;;;;;;0.38;0.38;;;;;;;6.79;100.00;98094.56;5033197;28;20034;-75
2023/10/30 05:01:09;;;;;;;0.40;0.40;;;;;;;6.78;100.00;98090.25;5018021;28;20029;-75
2023/10/30 05:03:38;;;;;;;0.30;0.30;;;;;;;6.79;100.00;98097.22;4999284;28;20468;-76
2023/10/30 05:06:04;;;;;;;0.40;0.40;;;;;;;6.78;100.00;98093.75;5029684;28;20128;-76
2023/10/30 05:08:30;;;;;;;0.40;0.40;;;;;;;6.78;100.00;98098.28;5016799;28;20444;-75
2023/10/30 05:10:56;;;;;;;0.40;0.40;;;;;;;6.76;100.00;98089.66;5026585;28;20174;-76
2023/10/30 05:13:22;;;;;;;0.40;0.40;;;;;;;6.75;100.00;98090.69;5017954;28;20057;-75
2023/10/30 05:15:47;;;;;;;0.40;0.40;;;;;;;6.74;100.00;98087.19;5032798;28;20387;-76
2023/10/30 05:18:13;;;;;;;0.40;0.40;;;;;;;6.76;100.00;98092.31;5015551;28;20038;-76
2023/10/30 05:20:39;;;;;;;0.30;0.30;;;;;;;6.77;100.00;98094.78;4997555;28;20037;-75
2023/10/30 05:23:04;;;;;;;0.40;0.40;;;;;;;6.75;100.00;98094.19;5015644;28;20037;-76
2023/10/30 05:25:30;;;;;;;0.40;0.40;;;;;;;6.79;100.00;98102.56;5034312;28;20036;-75
2023/10/30 05:27:57;;;;;;;0.40;0.40;;;;;;;6.77;100.00;98099.28;5015453;28;20088;-75
2023/10/30 05:30:22;;;;;;;0.40;0.40;;;;;;;6.79;100.00;98099.91;5031801;28;20507;-75
2023/10/30 05:32:48;;;;;;;0.40;0.40;;;;;;;6.74;100.00;98097.88;5016211;28;20057;-75
2023/10/30 05:35:14;;;;;;;0.40;0.40;;;;;;;6.80;100.00;98102.38;5015187;28;20087;-75
2023/10/30 05:37:40;;;;;;;0.40;0.40;;;;;;;6.77;100.00;98102.81;5017018;28;20045;-75
2023/10/30 05:40:07;;;;;;;0.30;0.30;;;;;;;6.77;100.00;98110.81;5016556;28;20046;-75
2023/10/30 05:42:34;;;;;;;0.40;0.40;;;;;;;6.74;100.00;98115.75;5016311;28;20025;-75
2023/10/30 05:45:00;;;;;;;0.40;0.40;;;;;;;6.74;100.00;98115.75;4985005;28;20056;-75
2023/10/30 05:47:25;;;;;;;0.40;0.40;;;;;;;6.73;100.00;98109.59;5033545;28;20033;-76
2023/10/30 05:49:51;;;;;;;0.40;0.40;;;;;;;6.68;100.00;98098.75;4998789;28;20046;-76
2023/10/30 05:52:16;;;;;;;0.40;0.40;;;;;;;6.64;100.00;98102.88;5016090;28;20052;-76
2023/10/30 05:54:42;;;;;;;0.40;0.40;;;;;;;6.60;100.00;98107.81;5015552;28;20030;-76
2023/10/30 05:57:09;;;;;;;0.40;0.40;;;;;;;6.53;100.00;98107.03;5030026;28;20033;-75
2023/10/30 05:59:34;;;;;;;0.30;0.30;;;;;;;6.48;100.00;98106.06;5034081;28;20191;-75
2023/10/30 06:02:00;;;;;;;0.40;0.40;;;;;;;6.47;100.00;98107.91;5015924;28;20460;-75
2023/10/30 06:04:26;;;;;;;0.40;0.40;;;;;;;6.42;100.00;98107.72;5014069;28;20029;-75
2023/10/30 06:06:53;;;;;;;0.40;0.40;;;;;;;6.37;100.00;98113.69;5016977;28;20056;-75
2023/10/30 06:09:18;;;;;;;0.50;0.50;;;;;;;6.34;100.00;98119.47;4983593;28;20130;-75
2023/10/30 06:11:48;;;;;;;0.40;0.40;;;;;;;6.34;100.00;98108.78;5032263;28;20049;-75
2023/10/30 06:14:15;;;;;;;0.40;0.40;;;;;;;6.43;100.00;98109.38;5016634;28;20086;-75
2023/10/30 06:16:41;;;;;;;0.40;0.40;;;;;;;6.52;100.00;98116.09;5016659;28;20041;-75
2023/10/30 06:19:06;;;;;;;0.40;0.40;;;;;;;6.58;100.00;98122.41;5014898;28;20055;-76
2023/10/30 06:21:32;;;;;;;0.40;0.40;;;;;;;6.63;100.00;98114.59;4999644;28;20490;-76
2023/10/30 06:23:57;;;;;;;0.40;0.40;;;;;;;6.66;100.00;98124.03;5031641;28;20052;-76
2023/10/30 06:26:23;;;;;;;0.40;0.40;;;;;;;6.59;100.00;98114.22;5031102;28;20037;-76
2023/10/30 06:28:49;;;;;;;0.40;0.40;;;;;;;6.63;100.00;98127.13;5016513;28;20040;-76
2023/10/30 06:31:18;;;;;;;0.40;0.40;;;;;;;6.57;100.00;98121.63;5015986;28;20410;-76
2023/10/30 06:33:45;;;;;;;0.40;0.40;;;;;;;6.52;100.00;98126.78;5031322;28;20084;-76
2023/10/30 06:36:11;;;;;;;0.40;0.40;;;;;;;6.47;100.00;98118.59;5013629;28;20179;-75
2023/10/30 06:38:37;;;;;;;0.40;0.40;;;;;;;6.46;100.00;98119.63;5014433;28;20116;-75
2023/10/30 06:41:04;;;;;;;0.40;0.40;;;;;;;6.44;100.00;98116.34;5013134;28;20038;-76
2023/10/30 06:43:30;;;;;;;0.40;0.40;;;;;;;6.46;100.00;98119.63;5016322;28;20036;-75
2023/10/30 06:46:02;;;;;;;0.40;0.40;;;;;;;6.48;100.00;98120.22;5014754;28;20137;-76
2023/10/30 06:48:28;;;;;;;0.30;0.30;;;;;;;6.49;100.00;98115.72;4980999;28;20048;-75
2023/10/30 06:50:54;;;;;;;0.40;0.40;;;;;;;6.52;100.00;98125.97;5030604;28;20029;-76
2023/10/30 06:53:21;;;;;;;0.50;0.50;;;;;;;6.55;100.00;98129.00;4998366;28;20087;-75
2023/10/30 06:55:46;;;;;;;0.30;0.30;;;;;;;6.57;100.00;98126.94;5030949;28;20040;-76
2023/10/30 06:58:12;;;;;;;0.40;0.40;;;;;;;6.59;100.00;98127.56;5030149;28;20037;-75
2023/10/30 07:00:37;;;;;;;0.40;0.40;;;;;;;6.62;100.00;98141.53;5016407;28;20044;-75
2023/10/30 07:03:03;;;;;;;0.40;0.40;;;;;;;6.66;100.00;98146.19;5016066;28;20061;-75
2023/10/30 07:05:29;;;;;;;0.40;0.40;;;;;;;6.68;100.00;98146.00;4997805;28;20037;-76
2023/10/30 07:07:54;;;;;;;0.40;0.40;;;;;;;6.68;100.00;98149.47;5030817;28;20106;-76
2023/10/30 07:10:20;;;;;;;0.40;0.40;;;;;;;6.72;100.00;98152.53;5003707;28;20033;-76
2023/10/30 07:12:46;;;;;;;0.40;0.40;;;;;;;6.74;100.00;98153.13;5002864;28;20115;-76
2023/10/30 07:15:12;;;;;;;0.40;0.40;;;;;;;6.71;100.00;98154.38;5036415;28;20028;-75
2023/10/30 07:17:37;;;;;;;0.40;0.40;;;;;;;6.75;100.00;98160.13;5019749;28;20030;-75
2023/10/30 07:20:03;;;;;;;0.40;0.40;;;;;;;6.73;100.00;98156.84;5031153;28;20029;-75
2023/10/30 07:22:29;;;;;;;0.40;0.40;;;;;;;6.72;100.00;98164.06;5066615;28;20033;-75
2023/10/30 07:24:58;;;;;;;0.50;0.50;;;;;;;6.74;100.00;98171.84;5034196;28;20040;-75
2023/10/30 07:27:23;;;;;;;0.30;0.30;;;;;;;6.76;100.00;98165.25;5013591;28;20037;-76
2023/10/30 07:29:49;;;;;;;0.30;0.30;;;;;;;6.74;100.00;98167.31;5016427;28;20030;-75
2023/10/30 07:32:14;;;;;;;0.40;0.40;;;;;;;6.79;100.00;98174.69;5029470;28;20033;-75
2023/10/30 07:34:41;;;;;;;0.40;0.40;;;;;;;6.79;100.00;98170.16;5027766;28;20041;-75
2023/10/30 07:37:07;;;;;;;0.40;0.40;;;;;;;6.85;100.00;98168.47;5035654;28;20029;-76
2023/10/30 07:39:32;;;;;;;0.30;0.30;;;;;;;6.89;100.00;98174.22;5018621;28;20064;-76
2023/10/30 07:41:58;;;;;;;0.40;0.40;;;;;;;6.94;100.00;98169.88;5015593;28;20149;-76
2023/10/30 07:44:24;;;;;;;0.40;0.40;;;;;;;7.00;100.00;98181.53;5003612;28;20468;-76
2023/10/30 07:46:49;;;;;;;0.30;0.30;;;;;;;7.05;100.00;98185.19;5019509;28;20365;-75
2023/10/30 07:49:15;;;;;;;0.40;0.40;;;;;;;7.11;100.00;98188.03;5016497;28;20036;-75
2023/10/30 07:51:40;;;;;;;0.30;0.30;;;;;;;7.15;100.00;98195.41;5003104;28;20034;-76
2023/10/30 07:54:06;;;;;;;0.40;0.40;;;;;;;7.17;100.00;98193.34;5017359;28;20045;-76
2023/10/30 07:56:32;;;;;;;0.40;0.40;;;;;;;7.20;100.00;98203.59;5000899;28;20037;-77
2023/10/30 07:58:58;;;;;;;0.30;0.30;;;;;;;7.23;100.00;98202.34;5013232;28;20079;-76
2023/10/30 08:01:24;;;;;;;0.50;0.50;;;;;;;7.24;100.00;98201.31;5018009;28;20041;-76
2023/10/30 08:03:49;;;;;;;0.38;0.38;;;;;;;7.27;100.00;98214.22;5016442;28;20037;-76
2023/10/30 08:06:15;;;;;;;0.30;0.30;;;;;;;7.27;100.00;98206.22;4997027;28;20187;-77
2023/10/30 08:08:41;;;;;;;0.40;0.40;;;;;;;7.34;100.00;98217.69;5015668;28;20102;-76
2023/10/30 08:11:08;;;;;;;0.40;0.40;;;;;;;7.38;100.00;98212.72;5016547;28;20033;-76
2023/10/30 08:13:34;;;;;;;0.40;0.40;;;;;;;7.42;100.00;98221.94;5017519;28;20060;-76
2023/10/30 08:16:00;;;;;;;0.40;0.40;;;;;;;7.47;100.00;98222.91;5016931;28;20472;-77
2023/10/30 08:18:25;;;;;;;0.40;0.40;;;;;;;7.53;100.00;98229.25;5030481;28;20468;-76
2023/10/30 08:20:51;;;;;;;0.40;0.40;;;;;;;7.60;100.00;98232.69;5015347;28;20630;-76
2023/10/30 08:23:17;;;;;;;0.40;0.40;;;;;;;7.65;100.00;98234.72;5000520;28;20045;-76
2023/10/30 08:25:43;;;;;;;0.40;0.40;;;;;;;7.63;100.00;98221.56;5025671;28;20111;-76
2023/10/30 08:28:13;;;;;;;0.40;0.40;;;;;;;7.71;100.00;98237.31;5028601;28;20053;-76
2023/10/30 08:30:38;;;;;;;0.30;0.30;;;;;;;7.73;100.00;98242.47;5002319;28;20095;-76
2023/10/30 08:33:04;;;;;;;0.40;0.40;;;;;;;7.75;100.00;98236.88;5016695;28;20045;-76
2023/10/30 08:35:30;;;;;;;0.40;0.40;;;;;;;7.76;100.00;98244.72;5015567;28;20037;-76
2023/10/30 08:37:57;;;;;;;0.40;0.40;;;;;;;7.76;100.00;98239.34;5013165;28;20088;-77
2023/10/30 08:40:24;;;;;;;0.40;0.40;;;;;;;7.78;100.00;98247.13;5013814;28;20091;-76
2023/10/30 08:42:49;;;;;;;0.40;0.40;;;;;;;7.77;100.00;98250.88;5000162;28;20091;-76
2023/10/30 08:45:15;;;;;;;0.40;0.40;;;;;;;7.76;100.00;98252.72;5018121;28;20434;-76
2023/10/30 08:47:41;;;;;;;0.30;0.30;;;;;;;7.75;100.00;98256.41;5018103;28;20426;-76
2023/10/30 08:50:07;;;;;;;0.40;0.40;;;;;;;7.74;100.00;98262.81;5031268;28;20409;-76
2023/10/30 08:52:33;;;;;;;0.50;0.50;;;;;;;7.75;100.00;98258.28;5013546;28;20049;-76
2023/10/30 08:54:59;;;;;;;0.43;0.43;;;;;;;7.72;100.00;98259.53;5015043;28;20063;-77
2023/10/30 08:57:24;;;;;;;0.40;0.40;;;;;;;7.77;100.00;98272.25;5034046;28;20487;-76
2023/10/30 08:59:50;;;;;;;0.40;0.40;;;;;;;7.78;100.00;98266.72;5034179;28;20029;-76
2023/10/30 09:02:16;;;;;;;0.38;0.38;;;;;;;7.85;100.00;98274.66;5034388;28;20108;-76
2023/10/30 09:04:41;;;;;;;0.50;0.50;;;;;;;7.90;100.00;98269.47;5042115;28;20038;-76
2023/10/30 09:07:07;;;;;;;0.40;0.40;;;;;;;7.94;100.00;98276.03;5013830;28;20052;-76
2023/10/30 09:09:33;;;;;;;0.40;0.40;;;;;;;7.97;100.00;98266.75;5015362;28;20116;-76
2023/10/30 09:11:58;;;;;;;0.35;0.35;;;;;;;8.02;100.00;98283.78;5017905;28;20045;-76
2023/10/30 09:14:24;;;;;;;0.40;0.40;;;;;;;8.09;100.00;98281.03;5017437;28;20030;-76
2023/10/30 09:16:50;;;;;;;0.30;0.30;;;;;;;8.21;100.00;98281.94;5017596;28;20040;-76
2023/10/30 09:19:16;;;;;;;0.50;0.50;;;;;;;8.30;100.00;98283.28;5013795;28;20040;-75
2023/10/30 09:21:41;;;;;;;0.40;0.40;;;;;;;8.38;100.00;98288.34;5016205;28;20037;-75
2023/10/30 09:24:07;;;;;;;0.40;0.40;;;;;;;8.45;100.00;98285.66;5017304;28;20072;-76
2023/10/30 09:26:33;;;;;;;0.40;0.40;;;;;;;8.49;100.00;98289.50;5017530;28;20361;-76
2023/10/30 09:28:58;;;;;;;0.40;0.40;;;;;;;8.48;100.00;98300.44;5016075;28;20033;-75
2023/10/30 09:31:24;;;;;;;0.40;0.40;;;;;;;8.40;100.00;98292.72;5016947;28;20033;-76
2023/10/30 09:33:49;;;;;;;0.35;0.35;;;;;;;8.47;100.00;98293.47;5035401;28;20444;-76
2023/10/30 09:36:15;;;;;;;0.50;0.50;;;;;;;8.55;100.00;98301.22;5017448;28;20116;-76
2023/10/30 09:38:43;;;;;;;0.40;0.40;;;;;;;8.70;100.00;98296.28;5017459;28;20033;-76
2023/10/30 09:41:12;;;;;;;0.38;0.38;;;;;;;9.02;100.00;98307.66;5033871;28;20082;-76
2023/10/30 09:43:38;;;;;;;0.40;0.40;;;;;;;9.37;100.00;98301.63;5001162;28;20045;-76
2023/10/30 09:46:07;;;;;;;0.40;0.40;;;;;;;9.58;100.00;98308.31;5001809;28;20471;-76
2023/10/30 09:48:51;;;;;;;0.40;0.40;;;;;;;9.65;100.00;98309.03;5018352;28;20044;-76
2023/10/30 09:51:17;;;;;;;0.40;0.40;;;;;;;9.60;100.00;98305.41;5033275;28;20056;-76
2023/10/30 09:53:43;;;;;;;0.40;0.40;;;;;;;9.61;100.00;98307.06;5000947;28;20493;-76
2023/10/30 09:56:08;;;;;;;0.40;0.40;;;;;;;9.65;100.00;98311.72;5017114;28;20515;-76
2023/10/30 09:58:36;;;;;;;0.40;0.40;;;;;;;9.79;100.00;98303.44;5000804;28;20030;-76
2023/10/30 10:01:01;;;;;;;0.40;0.40;;;;;;;9.92;100.00;98311.28;5000799;28;20106;-76
2023/10/30 10:03:28;;;;;;;0.40;0.40;;;;;;;10.13;100.00;98294.63;5017095;28;20076;-76
2023/10/30 10:05:58;;;;;;;0.50;0.50;;;;;;;10.31;100.00;98301.78;4984537;28;20491;-76
2023/10/30 10:08:25;;;;;;;0.30;0.30;;;;;;;10.31;100.00;98309.03;5000663;28;20036;-76
2023/10/30 10:10:59;;;;;;;0.40;0.40;;;;;;;10.08;100.00;98307.94;5000613;28;20069;-76
2023/10/30 10:13:26;;;;;;;0.40;0.40;;;;;;;9.82;100.00;98306.50;5017073;28;20030;-76
2023/10/30 10:15:52;;;;;;;0.30;0.30;;;;;;;9.60;100.00;98313.44;5033138;28;20088;-76
2023/10/30 10:18:31;;;;;;;0.30;0.30;;;;;;;9.44;100.00;98309.56;5033595;28;20456;-76
2023/10/30 10:21:08;;;;;;;0.30;0.30;;;;;;;9.33;100.00;98302.28;5016949;28;20057;-76
2023/10/30 10:23:34;;;;;;;0.40;0.40;;;;;;;9.45;100.00;98311.22;5032870;28;20042;-76
2023/10/30 10:26:05;;;;;;;0.40;0.40;;;;;;;9.67;100.00;98306.94;5016601;28;20087;-76
2023/10/30 10:28:32;;;;;;;0.40;0.40;;;;;;;9.86;100.00;98309.53;5000716;28;20041;-76
2023/10/30 10:30:58;;;;;;;0.40;0.40;;;;;;;10.10;100.00;98313.88;5000170;28;20036;-76
2023/10/30 10:33:27;;;;;;;0.40;0.40;;;;;;;10.29;100.00;98303.06;5016610;28;20030;-76
2023/10/30 10:35:56;;;;;;;0.40;0.40;;;;;;;10.46;100.00;98317.41;5016231;28;20033;-76
2023/10/30 10:38:22;;;;;;;0.40;0.40;;;;;;;10.66;100.00;98321.59;5015995;28;20032;-76
2023/10/30 10:40:51;;;;;;;0.40;0.40;;;;;;;10.85;100.00;98323.09;5032741;28;20033;-76
2023/10/30 10:43:19;;;;;;;0.40;0.40;;;;;;;11.03;100.00;98327.47;5015602;28;20395;-76
2023/10/30 10:45:49;;;;;;;0.40;0.40;;;;;;;11.07;100.00;98322.47;5016407;28;20029;-77
2023/10/30 10:48:16;;;;;;;0.40;0.40;;;;;;;11.09;100.00;98320.34;4999966;28;20493;-76
2023/10/30 10:50:42;;;;;;;0.40;0.40;;;;;;;11.09;100.00;98323.03;4983925;28;20501;-76
2023/10/30 10:53:10;;;;;;;0.40;0.40;;;;;;;11.07;100.00;98317.09;5016174;28;20115;-76
2023/10/30 10:55:42;;;;;;;0.40;0.40;;;;;;;11.43;100.00;98322.09;5016035;28;20375;-76
2023/10/30 10:58:10;;;;;;;0.30;0.30;;;;;;;11.78;100.00;98318.38;5016691;28;20029;-76
2023/10/30 11:00:52;;;;;;;0.30;0.30;;;;;;;11.48;100.00;98323.22;4999880;28;20471;-77
2023/10/30 11:03:21;;;;;;;0.50;0.50;;;;;;;11.13;100.00;98330.38;4999921;28;20490;-76
2023/10/30 11:05:53;;;;;;;0.32;0.32;;;;;;;10.98;100.00;98330.06;4999870;28;20494;-76
2023/10/30 11:08:50;;;;;;;0.40;0.40;;;;;;;10.84;100.00;98337.59;4999786;28;20037;-76
2023/10/30 11:11:40;;;;;;;0.30;0.30;;;;;;;10.83;100.00;98337.84;4991484;28;20087;-76
2023/10/30 11:14:06;;;;;;;0.40;0.40;;;;;;;10.99;100.00;98335.22;5032340;28;20101;-76
2023/10/30 11:16:58;;;;;;;0.40;0.40;;;;;;;11.20;100.00;98335.63;5032512;28;20116;-76
2023/10/30 11:19:25;;;;;;;0.30;0.30;;;;;;;11.39;100.00;98341.63;5015841;28;20057;-76
2023/10/30 11:21:51;;;;;;;0.40;0.40;;;;;;;11.55;100.00;98334.66;5015813;28;20038;-76
2023/10/30 11:24:37;;;;;;;0.40;0.40;;;;;;;11.69;100.00;98325.22;5030952;28;20029;-75
2023/10/30 11:27:25;;;;;;;0.30;0.30;;;;;;;11.92;100.00;98339.66;5030532;28;20112;-75
2023/10/30 11:30:03;;;;;;;0.40;0.40;;;;;;;12.07;100.00;98337.22;5015280;28;20033;-75